createdAt,value
2022-08-05T00:00:16.170Z,24.00
2022-08-05T00:02:43.846Z,25.10
2022-08-05T00:06:01.457Z,27.65
2022-08-05T00:08:05.319Z,26.25
2022-08-05T00:10:51.547Z,26.92
2022-08-05T00:13:18.603Z,29.05
2022-08-05T00:15:56.001Z,29.63
2022-08-05T00:18:24.894Z,28.07
2022-08-05T00:20:51.553Z,29.75
2022-08-05T00:23:30.806Z,27.05
2022-08-05T00:26:05.823Z,28.20
2022-08-05T00:28:32.946Z,29.35
2022-08-05T00:31:02.762Z,29.33
2022-08-05T00:34:56.279Z,28.35
2022-08-05T00:37:11.271Z,29.00
2022-08-05T00:39:04.589Z,25.42
2022-08-05T00:41:51.689Z,24.80
2022-08-05T00:44:20.893Z,24.92
2022-08-05T00:46:54.093Z,24.40
2022-08-05T00:49:28.241Z,24.02
2022-08-05T00:51:59.450Z,25.10
2022-08-05T00:54:27.945Z,23.92
2022-08-05T00:56:54.586Z,25.95
2022-08-05T00:59:21.044Z,21.70
2022-08-05T01:01:48.492Z,22.13
2022-08-05T01:04:15.815Z,23.35
2022-08-05T01:06:47.897Z,21.55
2022-08-05T01:09:19.870Z,22.10
2022-08-05T01:11:53.617Z,21.20
2022-08-05T01:14:41.526Z,22.85
2022-08-05T01:17:17.681Z,21.27
2022-08-05T01:20:02.341Z,23.03
2022-08-05T01:22:42.524Z,23.80
2022-08-05T01:25:22.098Z,24.08
2022-08-05T01:28:08.824Z,21.90
2022-08-05T01:30:39.806Z,20.48
2022-08-05T01:33:25.245Z,23.33
2022-08-05T01:35:57.481Z,21.90
2022-08-05T01:38:29.426Z,19.90
2022-08-05T01:41:02.270Z,21.35
2022-08-05T01:43:29.918Z,21.10
2022-08-05T01:45:58.787Z,20.38
2022-08-05T01:48:36.321Z,19.63
2022-08-05T01:51:12.016Z,21.75
2022-08-05T01:53:57.133Z,20.92
2022-08-05T01:58:11.969Z,20.77
2022-08-05T01:59:20.149Z,20.00
2022-08-05T02:01:50.134Z,21.65
2022-08-05T02:04:20.154Z,18.83
2022-08-05T02:06:47.893Z,18.67
2022-08-05T02:09:16.314Z,20.55
2022-08-05T02:11:58.093Z,20.05
2022-08-05T02:14:31.896Z,20.73
2022-08-05T02:17:29.724Z,21.50
2022-08-05T02:20:11.315Z,20.52
2022-08-05T02:22:43.465Z,19.83
2022-08-05T02:25:18.264Z,19.80
2022-08-05T02:27:58.927Z,20.98
2022-08-05T02:30:32.376Z,19.77
2022-08-05T02:33:02.704Z,19.77
2022-08-05T02:35:33.190Z,20.50
2022-08-05T02:38:05.186Z,20.63
2022-08-05T02:40:37.483Z,20.65
2022-08-05T02:43:04.744Z,19.75
2022-08-05T02:45:52.688Z,17.60
2022-08-05T02:48:29.186Z,18.73
2022-08-05T02:50:59.541Z,18.50
2022-08-05T02:53:26.799Z,16.95
2022-08-05T02:55:59.943Z,18.85
2022-08-05T02:58:30.262Z,18.95
2022-08-05T03:00:59.260Z,19.67
2022-08-05T03:03:28.611Z,20.55
2022-08-05T03:06:57.025Z,19.55
2022-08-05T03:08:52.304Z,19.85
2022-08-05T03:11:55.280Z,20.00
2022-08-05T03:14:13.470Z,20.65
2022-08-05T03:16:40.921Z,18.75
2022-08-05T03:19:16.856Z,20.38
2022-08-05T03:21:48.899Z,17.92
2022-08-05T03:24:18.162Z,19.63
2022-08-05T03:26:56.460Z,19.58
2022-08-05T03:29:24.027Z,20.05
2022-08-05T03:31:55.813Z,19.13
2022-08-05T03:34:24.838Z,20.05
2022-08-05T03:36:53.617Z,20.27
2022-08-05T03:39:27.030Z,20.05
2022-08-05T03:41:56.113Z,20.73
2022-08-05T03:44:23.462Z,20.92
2022-08-05T03:46:50.025Z,20.67
2022-08-05T03:49:16.652Z,20.50
2022-08-05T03:52:48.707Z,21.42
2022-08-05T03:56:05.718Z,20.30
2022-08-05T03:57:50.436Z,22.13
2022-08-05T04:00:17.286Z,21.45
2022-08-05T04:02:57.807Z,20.60
2022-08-05T04:05:33.152Z,23.88
2022-08-05T04:08:03.398Z,22.27
2022-08-05T04:10:37.925Z,21.60
2022-08-05T04:13:06.454Z,20.33
2022-08-05T04:15:35.892Z,21.27
2022-08-05T04:18:09.395Z,23.15
2022-08-05T04:20:36.525Z,21.75
2022-08-05T04:23:03.498Z,22.25
2022-08-05T04:25:49.425Z,21.35
2022-08-05T04:28:17.258Z,21.80
2022-08-05T04:30:44.374Z,22.08
2022-08-05T04:33:11.759Z,22.50
2022-08-05T04:36:10.667Z,25.73
2022-08-05T04:38:39.751Z,24.13
2022-08-05T04:41:07.517Z,24.58
2022-08-05T04:43:37.241Z,23.02
2022-08-05T04:46:04.580Z,27.50
2022-08-05T04:48:32.010Z,29.08
2022-08-05T04:51:02.654Z,26.05
2022-08-05T04:53:36.549Z,25.35
2022-08-05T04:56:33.192Z,24.00
2022-08-05T04:58:55.923Z,25.55
2022-08-05T05:02:05.740Z,25.13
2022-08-05T05:04:09.489Z,25.38
2022-08-05T05:06:40.441Z,24.80
2022-08-05T05:09:14.078Z,24.33
2022-08-05T05:11:54.533Z,22.17
2022-08-05T05:14:27.877Z,23.08
2022-08-05T05:17:02.175Z,22.52
2022-08-05T05:19:37.134Z,21.92
2022-08-05T05:22:24.364Z,21.70
2022-08-05T05:24:56.787Z,23.45
2022-08-05T05:27:41.372Z,24.35
2022-08-05T05:30:29.485Z,23.95
2022-08-05T05:33:00.933Z,21.80
2022-08-05T05:35:37.788Z,23.60
2022-08-05T05:38:09.438Z,22.38
2022-08-05T05:40:48.093Z,20.48
2022-08-05T05:43:16.770Z,20.60
2022-08-05T05:45:54.645Z,23.52
2022-08-05T05:48:27.542Z,21.83
2022-08-05T05:50:54.451Z,25.42
2022-08-05T05:53:22.786Z,22.95
2022-08-05T05:55:51.590Z,23.25
2022-08-05T05:58:31.913Z,24.35
2022-08-05T06:01:02.231Z,25.55
2022-08-05T06:03:53.830Z,25.02
2022-08-05T06:06:28.017Z,20.45
2022-08-05T06:08:58.492Z,19.70
2022-08-05T06:11:26.045Z,19.05
2022-08-05T06:13:54.184Z,17.60
2022-08-05T06:16:28.784Z,16.55
2022-08-05T06:19:01.964Z,16.30
2022-08-05T06:21:35.865Z,16.63
2022-08-05T06:24:04.689Z,11.88
2022-08-05T06:26:33.932Z,14.65
2022-08-05T06:29:03.462Z,13.93
2022-08-05T06:31:48.062Z,12.95
2022-08-05T06:34:17.308Z,10.63
2022-08-05T06:36:57.136Z,12.17
2022-08-05T06:39:27.142Z,12.02
2022-08-05T06:41:58.811Z,11.57
2022-08-05T06:44:25.982Z,11.77
2022-08-05T06:46:52.793Z,10.18
2022-08-05T06:49:21.479Z,9.68
2022-08-05T06:52:07.512Z,9.90
2022-08-05T06:54:54.018Z,10.38
2022-08-05T06:58:03.158Z,8.63
2022-08-05T07:00:07.782Z,11.02
2022-08-05T07:02:46.806Z,8.82
2022-08-05T07:05:18.853Z,10.63
2022-08-05T07:07:48.899Z,12.65
2022-08-05T07:10:16.382Z,8.27
2022-08-05T07:13:01.898Z,11.05
2022-08-05T07:16:01.950Z,11.30
2022-08-05T07:18:31.915Z,10.52
2022-08-05T07:20:58.810Z,10.05
2022-08-05T07:23:32.086Z,10.90
2022-08-05T07:25:58.565Z,10.57
2022-08-05T07:28:25.333Z,7.70
2022-08-05T07:30:55.036Z,9.32
2022-08-05T07:33:37.074Z,9.88
2022-08-05T07:36:21.157Z,8.15
2022-08-05T07:38:48.936Z,8.60
2022-08-05T07:42:13.039Z,9.38
2022-08-05T07:44:14.323Z,7.97
2022-08-05T07:46:48.216Z,11.32
2022-08-05T07:49:16.123Z,12.23
2022-08-05T07:51:52.994Z,9.70
2022-08-05T07:54:31.555Z,11.07
2022-08-05T07:57:41.567Z,11.35
2022-08-05T08:02:18.180Z,11.55
2022-08-05T08:04:49.169Z,10.52
2022-08-05T08:07:18.248Z,7.90
2022-08-05T08:09:50.160Z,8.10
2022-08-05T08:12:33.376Z,8.23
2022-08-05T08:15:05.439Z,8.60
2022-08-05T08:17:40.907Z,7.82
2022-08-05T08:20:42.878Z,7.95
2022-08-05T08:23:07.451Z,7.95
2022-08-05T08:25:59.177Z,7.65
2022-08-05T08:28:36.731Z,8.50
2022-08-05T08:31:17.390Z,6.68
2022-08-05T08:33:44.526Z,7.85
2022-08-05T08:36:38.279Z,7.90
2022-08-05T08:38:57.736Z,6.18
2022-08-05T08:41:51.945Z,6.30
2022-08-05T08:45:16.986Z,7.57
2022-08-05T08:47:47.651Z,9.00
2022-08-05T08:50:06.160Z,8.98
2022-08-05T08:52:56.783Z,8.50
2022-08-05T08:56:02.444Z,9.30
2022-08-05T08:58:12.976Z,5.38
2022-08-05T09:00:40.370Z,5.10
2022-08-05T09:03:09.107Z,5.65
2022-08-05T09:05:38.520Z,5.82
2022-08-05T09:08:26.778Z,5.32
2022-08-05T09:10:54.605Z,4.00
2022-08-05T09:13:21.475Z,5.03
2022-08-05T09:15:51.240Z,4.63
2022-08-05T09:18:18.351Z,6.32
2022-08-05T09:20:45.822Z,6.35
2022-08-05T09:23:18.784Z,7.20
2022-08-05T09:26:02.659Z,6.88
2022-08-05T09:28:34.506Z,7.25
2022-08-05T09:31:43.665Z,6.22
2022-08-05T09:33:54.874Z,5.30
2022-08-05T09:36:27.752Z,6.07
2022-08-05T09:39:18.144Z,5.35
2022-08-05T09:41:56.203Z,5.57
2022-08-05T09:44:35.448Z,5.10
2022-08-05T09:47:12.798Z,5.68
2022-08-05T09:50:01.425Z,5.32
2022-08-05T09:52:32.030Z,5.20
2022-08-05T09:55:06.305Z,5.43
2022-08-05T09:57:54.634Z,5.03
2022-08-05T10:00:25.868Z,5.40
2022-08-05T10:02:54.725Z,6.38
2022-08-05T10:05:26.930Z,5.18
2022-08-05T10:08:35.538Z,5.43
2022-08-05T10:10:54.205Z,5.55
2022-08-05T10:13:31.636Z,5.30
2022-08-05T10:16:33.863Z,6.22
2022-08-05T10:19:01.876Z,4.47
2022-08-05T10:21:40.130Z,5.00
2022-08-05T10:24:13.542Z,4.90
2022-08-05T10:26:51.893Z,5.60
2022-08-05T10:29:24.122Z,5.45
2022-08-05T10:32:51.846Z,5.22
2022-08-05T10:34:57.530Z,4.95
2022-08-05T10:37:44.348Z,4.03
2022-08-05T10:40:30.156Z,4.72
2022-08-05T10:43:07.241Z,3.97
2022-08-05T10:45:42.118Z,3.63
2022-08-05T10:48:52.518Z,4.53
2022-08-05T10:51:23.221Z,4.28
2022-08-05T10:54:01.900Z,4.15
2022-08-05T10:56:49.401Z,3.67
2022-08-05T11:00:02.640Z,4.55
2022-08-05T11:02:37.446Z,4.10
2022-08-05T11:05:08.768Z,3.35
2022-08-05T11:08:02.830Z,3.28
2022-08-05T11:10:36.960Z,2.70
2022-08-05T11:13:06.618Z,2.90
2022-08-05T11:16:00.894Z,2.75
2022-08-05T11:18:34.225Z,2.45
2022-08-05T11:21:02.876Z,2.40
2022-08-05T11:24:05.020Z,3.05
2022-08-05T11:26:29.181Z,2.90
2022-08-05T11:29:11.958Z,2.70
2022-08-05T11:31:54.202Z,3.30
2022-08-05T11:34:52.037Z,2.88
2022-08-05T11:38:28.004Z,3.00
2022-08-05T11:41:03.410Z,3.67
2022-08-05T11:44:05.515Z,3.97
2022-08-05T11:46:58.647Z,3.38
2022-08-05T11:49:27.611Z,2.53
2022-08-05T11:51:54.387Z,3.05
2022-08-05T11:54:33.525Z,2.67
2022-08-05T11:57:08.701Z,2.83
2022-08-05T11:59:50.243Z,2.90
2022-08-05T12:02:23.856Z,2.60
2022-08-05T12:04:59.505Z,2.78
2022-08-05T12:10:13.813Z,2.75
2022-08-05T12:12:40.354Z,3.08
2022-08-05T12:15:37.974Z,2.90
2022-08-05T12:18:10.704Z,3.08
2022-08-05T12:20:38.783Z,2.85
2022-08-05T12:23:12.006Z,3.47
2022-08-05T12:25:56.815Z,3.08
2022-08-05T12:28:34.027Z,3.47
2022-08-05T12:31:02.399Z,4.07
2022-08-05T12:33:36.768Z,3.55
2022-08-05T12:36:09.514Z,2.80
2022-08-05T12:38:39.643Z,2.92
2022-08-05T12:41:14.576Z,3.03
2022-08-05T12:44:01.309Z,6.70
2022-08-05T12:46:31.345Z,3.35
2022-08-05T12:49:05.865Z,4.32
2022-08-05T12:52:13.649Z,3.38
2022-08-05T12:54:37.169Z,3.30
2022-08-05T12:57:09.220Z,2.90
2022-08-05T13:01:57.150Z,4.05
2022-08-05T13:02:42.274Z,3.40
2022-08-05T13:05:14.698Z,3.03
2022-08-05T13:07:59.880Z,3.47
2022-08-05T13:10:28.762Z,3.45
2022-08-05T13:12:58.490Z,4.30
2022-08-05T13:18:19.418Z,3.50
2022-08-05T13:23:12.970Z,4.07
2022-08-05T13:25:52.057Z,3.38
2022-08-05T13:28:25.729Z,3.15
2022-08-05T13:30:53.380Z,3.65
2022-08-05T13:34:23.398Z,3.25
2022-08-05T13:36:10.129Z,3.58
2022-08-05T13:38:38.496Z,3.67
2022-08-05T13:41:09.705Z,3.33
2022-08-05T13:43:45.064Z,3.35
2022-08-05T13:46:50.985Z,3.05
2022-08-05T13:49:09.865Z,3.42
2022-08-05T13:51:41.070Z,3.20
2022-08-05T13:54:11.984Z,2.90
2022-08-05T13:56:50.237Z,2.28
2022-08-05T13:59:24.408Z,4.40
2022-08-05T14:01:57.691Z,3.13
2022-08-05T14:04:49.922Z,2.83
2022-08-05T14:07:59.681Z,3.22
2022-08-05T14:10:28.802Z,3.08
2022-08-05T14:12:57.246Z,3.08
2022-08-05T14:16:05.083Z,3.17
2022-08-05T14:18:14.612Z,3.25
2022-08-05T14:20:47.074Z,3.72
2022-08-05T14:23:13.966Z,3.50
2022-08-05T14:25:54.277Z,2.90
2022-08-05T14:28:26.134Z,2.90
2022-08-05T14:30:53.577Z,2.97
2022-08-05T14:33:22.604Z,3.30
2022-08-05T14:38:31.833Z,3.00
2022-08-05T14:41:05.772Z,3.05
2022-08-05T14:43:58.911Z,3.10
2022-08-05T14:46:20.179Z,2.63
2022-08-05T14:48:49.326Z,2.70
2022-08-05T14:51:17.686Z,3.22
2022-08-05T14:53:44.994Z,3.17
2022-08-05T14:56:13.343Z,3.10
2022-08-05T14:58:47.724Z,3.13
2022-08-05T15:01:47.298Z,2.60
2022-08-05T15:04:09.940Z,2.30
2022-08-05T15:06:38.582Z,1.92
2022-08-05T15:09:07.533Z,2.13
2022-08-05T15:11:51.388Z,1.65
2022-08-05T15:14:35.704Z,1.88
2022-08-05T15:17:14.549Z,2.35
2022-08-05T15:19:55.210Z,2.08
2022-08-05T15:22:21.966Z,2.22
2022-08-05T15:24:54.148Z,2.33
2022-08-05T15:27:20.705Z,1.95
2022-08-05T15:29:47.192Z,2.30
2022-08-05T15:32:16.480Z,2.78
2022-08-05T15:34:43.296Z,2.53
2022-08-05T15:37:15.547Z,2.33
2022-08-05T15:41:04.619Z,1.95
2022-08-05T15:42:55.103Z,2.90
2022-08-05T15:45:17.149Z,2.85
2022-08-05T15:47:45.971Z,3.13
2022-08-05T15:50:15.488Z,3.28
2022-08-05T15:52:53.046Z,3.03
2022-08-05T15:55:24.867Z,2.87
2022-08-05T15:58:09.401Z,2.08
2022-08-05T16:00:56.947Z,3.10
2022-08-05T16:03:29.608Z,2.47
2022-08-05T16:05:59.289Z,3.13
2022-08-05T16:08:30.756Z,2.13
2022-08-05T16:10:58.293Z,2.25
2022-08-05T16:13:34.188Z,2.20
2022-08-05T16:16:05.110Z,2.40
2022-08-05T16:18:33.056Z,2.65
2022-08-05T16:21:04.345Z,2.22
2022-08-05T16:23:33.121Z,2.75
2022-08-05T16:26:18.181Z,2.58
2022-08-05T16:28:44.686Z,2.17
2022-08-05T16:31:11.189Z,2.60
2022-08-05T16:33:41.709Z,2.40
2022-08-05T16:36:09.102Z,2.03
2022-08-05T16:38:35.783Z,2.08
2022-08-05T16:42:12.129Z,2.03
2022-08-05T16:43:49.312Z,2.33
2022-08-05T16:46:24.671Z,2.30
2022-08-05T16:48:51.543Z,2.05
2022-08-05T16:51:19.108Z,2.30
2022-08-05T16:54:05.613Z,2.83
2022-08-05T16:56:35.166Z,2.70
2022-08-05T16:59:07.724Z,2.10
2022-08-05T17:01:53.543Z,2.22
2022-08-05T17:04:21.960Z,2.45
2022-08-05T17:06:53.133Z,2.67
2022-08-05T17:09:20.461Z,2.80
2022-08-05T17:11:48.761Z,3.22
2022-08-05T17:14:34.122Z,2.85
2022-08-05T17:17:02.607Z,3.58
2022-08-05T17:19:29.257Z,3.60
2022-08-05T17:21:57.156Z,3.13
2022-08-05T17:24:35.197Z,2.50
2022-08-05T17:27:07.889Z,2.85
2022-08-05T17:29:41.038Z,3.08
2022-08-05T17:32:17.268Z,2.72
2022-08-05T17:34:47.683Z,3.17
2022-08-05T17:37:40.743Z,2.63
2022-08-05T17:40:02.910Z,3.13
2022-08-05T17:42:30.110Z,3.17
2022-08-05T17:44:59.432Z,3.33
2022-08-05T17:47:27.209Z,3.53
2022-08-05T17:50:04.016Z,3.65
2022-08-05T17:52:53.166Z,3.53
2022-08-05T17:55:22.151Z,2.83
2022-08-05T17:57:50.244Z,2.92
2022-08-05T18:00:17.454Z,3.15
2022-08-05T18:02:46.726Z,3.35
2022-08-05T18:05:16.793Z,3.20
2022-08-05T18:07:44.529Z,3.17
2022-08-05T18:10:11.856Z,3.17
2022-08-05T18:12:47.570Z,3.35
2022-08-05T18:15:14.213Z,3.88
2022-08-05T18:17:59.067Z,3.70
2022-08-05T18:20:29.267Z,3.75
2022-08-05T18:22:58.614Z,4.65
2022-08-05T18:25:33.192Z,4.63
2022-08-05T18:28:01.703Z,3.83
2022-08-05T18:30:32.263Z,4.13
2022-08-05T18:33:00.452Z,4.55
2022-08-05T18:36:01.316Z,4.38
2022-08-05T18:38:19.065Z,5.68
2022-08-05T18:41:53.495Z,4.95
2022-08-05T18:43:37.928Z,4.90
2022-08-05T18:46:09.784Z,4.40
2022-08-05T18:48:41.337Z,4.85
2022-08-05T18:52:02.627Z,4.95
2022-08-05T18:54:13.385Z,4.70
2022-08-05T18:56:40.452Z,4.80
2022-08-05T18:59:43.961Z,4.70
2022-08-05T19:01:56.940Z,5.28
2022-08-05T19:04:25.537Z,4.45
2022-08-05T19:06:53.523Z,4.55
2022-08-05T19:09:20.601Z,4.90
2022-08-05T19:12:00.479Z,6.30
2022-08-05T19:14:37.843Z,4.63
2022-08-05T19:17:15.181Z,5.10
2022-08-05T19:19:46.800Z,4.95
2022-08-05T19:22:17.170Z,4.82
2022-08-05T19:24:54.392Z,5.35
2022-08-05T19:27:22.923Z,5.18
2022-08-05T19:29:49.980Z,4.40
2022-08-05T19:32:16.505Z,5.35
2022-08-05T19:34:55.275Z,5.35
2022-08-05T19:37:29.857Z,4.70
2022-08-05T19:40:01.889Z,4.18
2022-08-05T19:42:35.502Z,5.05
2022-08-05T19:45:02.887Z,4.78
2022-08-05T19:47:33.145Z,5.32
2022-08-05T19:50:01.069Z,4.93
2022-08-05T19:52:31.533Z,4.65
2022-08-05T19:55:00.395Z,4.63
2022-08-05T19:57:48.984Z,4.90
2022-08-05T20:00:20.710Z,4.45
2022-08-05T20:02:47.443Z,4.80
2022-08-05T20:05:24.052Z,5.25
2022-08-05T20:07:55.048Z,5.25
2022-08-05T20:10:25.098Z,4.82
2022-08-05T20:12:51.809Z,4.07
2022-08-05T20:15:48.058Z,4.25
2022-08-05T20:18:10.989Z,4.85
2022-08-05T20:20:55.230Z,5.75
2022-08-05T20:23:23.794Z,3.42
2022-08-05T20:26:07.848Z,4.35
2022-08-05T20:28:34.348Z,4.50
2022-08-05T20:31:03.543Z,4.88
2022-08-05T20:33:32.994Z,4.35
2022-08-05T20:36:02.165Z,4.82
2022-08-05T20:38:31.381Z,5.07
2022-08-05T20:41:04.479Z,5.40
2022-08-05T20:43:59.825Z,4.90
2022-08-05T20:46:25.044Z,4.88
2022-08-05T20:48:52.186Z,5.07
2022-08-05T20:51:18.741Z,4.35
2022-08-05T20:53:56.698Z,4.20
2022-08-05T20:56:29.949Z,4.90
2022-08-05T20:59:00.021Z,4.43
2022-08-05T21:01:41.109Z,4.75
2022-08-05T21:04:10.389Z,5.55
2022-08-05T21:06:37.544Z,5.07
2022-08-05T21:09:11.491Z,4.97
2022-08-05T21:12:07.138Z,4.97
2022-08-05T21:14:27.178Z,4.25
2022-08-05T21:16:53.631Z,5.38
2022-08-05T21:19:20.189Z,4.97
2022-08-05T21:21:50.869Z,4.82
2022-08-05T21:24:19.625Z,5.35
2022-08-05T21:26:53.444Z,5.40
2022-08-05T21:29:23.579Z,5.00
2022-08-05T21:31:53.492Z,6.22
2022-08-05T21:34:20.423Z,4.65
2022-08-05T21:36:49.154Z,5.22
2022-08-05T21:39:16.877Z,5.25
2022-08-05T21:42:01.094Z,4.82
2022-08-05T21:44:28.871Z,5.22
2022-08-05T21:46:58.349Z,5.57
2022-08-05T21:50:00.164Z,4.85
2022-08-05T21:52:22.552Z,4.97
2022-08-05T21:54:55.127Z,5.25
2022-08-05T21:57:31.501Z,5.10
2022-08-05T22:00:10.787Z,7.15
2022-08-05T22:02:38.111Z,6.43
2022-08-05T22:05:05.999Z,6.57
2022-08-05T22:07:40.420Z,6.75
2022-08-05T22:10:26.643Z,6.80
2022-08-05T22:12:58.715Z,7.10
2022-08-05T22:16:01.845Z,7.28
2022-08-05T22:18:12.913Z,6.72
2022-08-05T22:20:41.652Z,6.43
2022-08-05T22:24:00.714Z,5.88
2022-08-05T22:26:33.600Z,5.72
2022-08-05T22:29:00.275Z,5.15
2022-08-05T22:31:30.040Z,5.55
2022-08-05T22:34:01.373Z,6.13
2022-08-05T22:36:28.953Z,6.32
2022-08-05T22:38:55.760Z,6.68
2022-08-05T22:42:05.606Z,5.60
2022-08-05T22:44:09.295Z,6.22
2022-08-05T22:46:39.884Z,5.88
2022-08-05T22:49:23.566Z,5.53
2022-08-05T22:52:04.499Z,6.95
2022-08-05T22:54:33.494Z,7.03
2022-08-05T22:56:59.999Z,5.85
2022-08-05T22:59:45.975Z,7.05
2022-08-05T23:02:13.708Z,8.75
2022-08-05T23:07:18.411Z,8.70
2022-08-05T23:09:57.826Z,8.15
2022-08-05T23:12:32.843Z,9.65
2022-08-05T23:15:08.813Z,8.93
2022-08-05T23:17:59.725Z,9.68
2022-08-05T23:20:24.422Z,8.10
2022-08-05T23:22:55.682Z,9.05
2022-08-05T23:25:52.910Z,7.15
2022-08-05T23:28:11.472Z,8.18
2022-08-05T23:30:40.034Z,8.20
2022-08-05T23:33:22.292Z,8.80
2022-08-05T23:35:56.093Z,7.85
2022-08-05T23:38:24.213Z,7.03
2022-08-05T23:40:52.608Z,8.32
2022-08-05T23:43:25.500Z,7.82
2022-08-05T23:46:17.609Z,6.22
2022-08-05T23:48:59.943Z,7.57
2022-08-05T23:51:53.552Z,6.10
2022-08-05T23:54:26.648Z,8.25
2022-08-05T23:57:03.178Z,7.38
